Tiempo atmosférico en la estación meteorológica de Palma, Universidad, Illes Balears (80 m.)



Fecha
DESCASC
Temp. máxima en grados centígrados (hora)
DESCASC
Temp. mínima en grados centígrados (hora)
DESCASC
Temp. media en grados centígrados
DESCASC
Racha de viento máxima en m/sg (hora)
DESCASC
Velocidad máxima media en intervalos de 10 minutos(hora)
DESCASC
Precipitaciones diarias en mm
DESCASC
Precipitaciones de 00:00 a 06:00 en mm
DESCASC
Precipitaciones de 06:00 a 12:00 en mm
DESCASC
Precipitaciones de 12:00 a 18:00 en mm
DESCASC
Precipitaciones de 18:00 a 24:00 en mm
DESCASC

Gráficas

Temp. máximas Temp. mínimas Temp. medias Precipitaciones Rachas de viento máximas Velocidades máximas media en intervalos de 10 minutos

Datos horarios

Fecha y hora oficial Temperatura (ºC) Velocidad del viento (km/h) Dirección del viento Racha (km/h) Dirección de racha Precipitación (mm) Presión (hPa) Tendencia (hPa) Humedad (%)
2019-08-24 23:00:00 21.7 0 Calma 2 Norte 0 -- -- 86
2019-08-24 22:00:00 22.9 0 Calma 4 Sudeste 0 -- -- 81
2019-08-24 21:00:00 25.2 3 Sudeste 12 Sudeste 0 -- -- 75
2019-08-24 20:00:00 26.6 8 Sur 18 Sudoeste 0 -- -- 67
2019-08-24 19:00:00 28 13 Sur 23 Sudeste 0 -- -- 63
2019-08-24 18:00:00 29.4 13 Sudeste 23 Sudeste 0 -- -- 59
2019-08-24 17:00:00 30.4 10 Sur 24 Sur 0 -- -- 55
2019-08-24 16:00:00 30.4 12 Sur 23 Sudeste 0 -- -- 56
2019-08-24 15:00:00 30.8 13 Sur 24 Sur 0 -- -- 52
2019-08-24 14:00:00 31.5 13 Sur 33 Sudeste 0 -- -- 51
2019-08-24 13:00:00 32.1 10 Este 22 Sudeste 0 -- -- 42
2019-08-24 12:00:00 31.2 5 Este 14 Sur 0 -- -- 47
2019-08-24 11:00:00 29.1 4 Sudoeste 11 Sudeste 0 -- -- 58
2019-08-24 10:00:00 27.5 5 Sudeste 10 Sudeste 0 -- -- 65
2019-08-24 09:00:00 25.9 0 Calma -- -- 0 -- -- 74
2019-08-24 08:00:00 19.5 0 Calma -- -- 0 -- -- 97
2019-08-24 07:00:00 18.3 0 Calma -- -- 0 -- -- 96
2019-08-24 06:00:00 18.4 0 Calma -- -- 0 -- -- 96
2019-08-24 05:00:00 18.5 0 Calma -- -- 0 -- -- 94
2019-08-24 04:00:00 18.8 0 Calma 4 Norte 0 -- -- 93
2019-08-24 03:00:00 19.1 0 Calma 4 Norte 0 -- -- 92
2019-08-24 02:00:00 19.5 0 Calma 4 Norte 0 -- -- 90
2019-08-24 01:00:00 20.1 0 Calma 5 Norte 0 -- -- 87
2019-08-24 00:00:00 20.7 3 Norte 5 Este 0 -- -- 86
2019-08-23 23:00:00 21.3 0 Calma 4 Norte 0 -- -- 84
2019-08-23 22:00:00 22.6 0 Calma 8 Sur 0 -- -- 76
2019-08-23 21:00:00 25 4 Sudoeste 10 Sur 0 -- -- 71
2019-08-23 20:00:00 26.3 8 Sur 20 Sur 0 -- -- 67
2019-08-23 19:00:00 27.5 13 Sur 23 Sur 0 -- -- 58
2019-08-23 18:00:00 28.9 11 Sur 24 Sudeste 0 -- -- 53
2019-08-23 17:00:00 30.1 13 Sur 22 Sur 0 -- -- 51
2019-08-23 16:00:00 30.8 11 Sudeste 22 Sudeste 0 -- -- 47
2019-08-23 15:00:00 30.5 14 Sur 27 Sudeste 0 -- -- 50
2019-08-23 14:00:00 31.4 13 Sudeste 29 Sudeste 0 -- -- 43
2019-08-23 13:00:00 30.8 5 Sudeste 22 Sur 0 -- -- 42
2019-08-23 12:00:00 30.1 11 Sudoeste 19 Oeste 0 -- -- 41
2019-08-23 11:00:00 28.8 8 Sudeste 14 Sudeste 0 -- -- 46
2019-08-23 10:00:00 27 6 Sudeste 10 Sudeste 0 -- -- 54
2019-08-23 09:00:00 24.4 3 Sur 13 Sur 0 -- -- 57
2019-08-23 08:00:00 17.7 2 Sudoeste 5 Nordeste 0 -- -- 76
2019-08-23 07:00:00 15.3 0 Calma 6 Norte 0 -- -- 77
2019-08-23 06:00:00 15.8 2 Noroeste 6 Oeste 0 -- -- 73
2019-08-23 05:00:00 16.4 0 Calma 7 Norte 0 -- -- 74
2019-08-23 04:00:00 15.6 2 Norte 8 Norte 0 -- -- 70
2019-08-23 03:00:00 15.9 0 Calma 6 Norte 0 -- -- 68
2019-08-23 02:00:00 16.3 3 Norte 8 Norte 0 -- -- 63
2019-08-23 01:00:00 16.6 4 Norte 8 Norte 0 -- -- 61
2019-08-23 00:00:00 17 0 Calma 5 Nordeste 0 -- -- 61
2019-08-22 23:00:00 18 0 Calma 6 Norte 0 -- -- 63
2019-08-22 22:00:00 20.1 2 Noroeste 5 Norte 0 -- -- 56
2019-08-22 21:00:00 23.8 0 Calma 10 Sudoeste 0 -- -- 47
2019-08-22 20:00:00 27.7 7 Sur 20 Noroeste 0 -- -- 37
2019-08-22 19:00:00 29.6 10 Oeste 26 Noroeste 0 -- -- 36
2019-08-22 18:00:00 30.5 12 Oeste 23 Oeste 0 -- -- 34
2019-08-22 17:00:00 31.9 9 Noroeste 21 Noroeste 0 -- -- 30
2019-08-22 16:00:00 32.1 8 Noroeste 27 Norte 0 -- -- 32
2019-08-22 15:00:00 31.9 14 Noroeste 29 Norte 0 -- -- 31
2019-08-22 14:00:00 32.6 10 Norte 26 Este 0 -- -- 31
2019-08-22 13:00:00 31.4 10 Este 26 Este 0 -- -- 41
2019-08-22 12:00:00 31.3 9 Norte 22 Norte 0 -- -- 37
2019-08-22 11:00:00 29.9 12 Norte 27 Norte 0 -- -- 38
2019-08-22 10:00:00 28.2 7 Norte 15 Norte 0 -- -- 50
2019-08-22 09:00:00 24.5 0 Calma 6 Sudeste 0 -- -- 52
2019-08-22 08:00:00 17 3 Norte 6 Norte 0 -- -- 88
2019-08-22 07:00:00 14.6 0 Calma 5 Norte 0 -- -- 91
2019-08-22 06:00:00 14.9 0 Calma 5 Norte 0 -- -- 91
2019-08-22 05:00:00 15.4 0 Calma 6 Norte 0 -- -- 91
2019-08-22 04:00:00 15.4 0 Calma 7 Norte 0 -- -- 89
2019-08-22 03:00:00 16.2 0 Calma 7 Norte 0 -- -- 86
2019-08-22 02:00:00 16.7 0 Calma 4 Norte 0 -- -- 84
2019-08-22 01:00:00 18.1 0 Calma 4 Nordeste 0 -- -- 80
2019-08-22 00:00:00 18.9 0 Calma -- -- 0 -- -- 77
2019-08-21 23:00:00 19.9 0 Calma 4 Oeste 0 -- -- 72
2019-08-21 22:00:00 21.6 0 Calma 9 Este 0 -- -- 67
2019-08-21 21:00:00 24.2 4 Este 17 Nordeste 0 -- -- 59
2019-08-21 20:00:00 26.1 7 Este 20 Este 0 -- -- 55
2019-08-21 19:00:00 28.3 12 Este 23 Este 0 -- -- 51
2019-08-21 18:00:00 28.4 7 Sudoeste 26 Sudeste 0 -- -- 49
2019-08-21 17:00:00 29.5 9 Sudeste 24 Este 0 -- -- 47
2019-08-21 16:00:00 30 9 Sudeste 18 Sur 0 -- -- 45
2019-08-21 15:00:00 31.6 7 Sur 20 Este 0 -- -- 41
2019-08-21 14:00:00 30 8 Nordeste 29 Este 0 -- -- 42
2019-08-21 13:00:00 29.9 9 Sudeste 26 Sudeste 0 -- -- 42
2019-08-21 12:00:00 28.8 12 Este 24 Sudeste 0 -- -- 45
2019-08-21 11:00:00 27.7 8 Nordeste 21 Este 0 -- -- 46
2019-08-21 10:00:00 26.3 4 Sudoeste 10 Sur 0 -- -- 52
2019-08-21 09:00:00 25 3 Este 5 Este 0 -- -- 57
2019-08-21 08:00:00 18.5 2 Norte 5 Norte 0 -- -- 86
2019-08-21 07:00:00 16.2 0 Calma 4 Norte 0 -- -- 92
2019-08-21 06:00:00 16.6 2 Norte 5 Norte 0 -- -- 89
2019-08-21 05:00:00 17.4 3 Norte 6 Oeste 0 -- -- 87
2019-08-21 04:00:00 18.1 0 Calma 5 Sudoeste 0 -- -- 83
2019-08-21 03:00:00 20.2 3 Sudoeste 8 Oeste 0 -- -- 76
2019-08-21 02:00:00 20.8 3 Sudoeste 8 Sur 0 -- -- 78
2019-08-21 01:00:00 22.6 2 Noroeste 19 Este 0 -- -- 65
2019-08-21 00:00:00 23.3 13 Este 28 Este 0 -- -- 67
2019-08-20 23:00:00 23.8 14 Este 26 Nordeste 0 -- -- 68
2019-08-20 22:00:00 23.6 12 Este 25 Este 0 -- -- 68
2019-08-20 21:00:00 23.9 15 Este 37 Este 0 -- -- 71
2019-08-20 20:00:00 24.3 19 Este 37 Nordeste 0 -- -- 69
2019-08-20 19:00:00 24.9 21 Este 45 Este 0 -- -- 68
2019-08-20 18:00:00 26.2 20 Este 43 Este 0 -- -- 67
2019-08-20 17:00:00 27.9 23 Este 43 Nordeste 0 -- -- 63
2019-08-20 16:00:00 29 20 Este 40 Este 0 -- -- 62
2019-08-20 15:00:00 29.4 20 Este 35 Este 0 -- -- 61
2019-08-20 14:00:00 29.4 13 Este 31 Este 0 -- -- 61
2019-08-20 13:00:00 31.3 9 Este 26 Este 0 -- -- 54
2019-08-20 12:00:00 30.9 11 Este 23 Nordeste 0 -- -- 55
2019-08-20 11:00:00 30.1 11 Este 23 Este 0 -- -- 57
2019-08-20 10:00:00 29.2 9 Este 20 Este 0 -- -- 62
2019-08-20 09:00:00 27.8 2 Nordeste 7 Norte 0 -- -- 69
2019-08-20 08:00:00 21 0 Calma 4 Norte 0 -- -- 97
2019-08-20 07:00:00 19.4 0 Calma 4 Norte 0 -- -- 97
2019-08-20 06:00:00 19.7 0 Calma -- -- 0 -- -- 96
2019-08-20 05:00:00 20 0 Calma -- -- 0 -- -- 97
2019-08-20 04:00:00 20.5 0 Calma 4 Norte 0 -- -- 96
2019-08-20 03:00:00 21.2 0 Calma 6 Nordeste 0 -- -- 95
2019-08-20 02:00:00 21.5 3 Nordeste 7 Nordeste 0 -- -- 94
2019-08-20 01:00:00 22.9 0 Calma 8 Sur 0 -- -- 91
2019-08-20 00:00:00 23.4 2 Sur 8 Este 0 -- -- 89
2019-08-19 23:00:00 23.2 2 Nordeste 5 Norte 0 -- -- 90
2019-08-19 22:00:00 24.9 0 Calma 10 Sudoeste 0 -- -- 85
2019-08-19 21:00:00 26.4 4 Sudoeste 12 Sur 0 -- -- 80
2019-08-19 20:00:00 28.6 7 Sur 17 Sudoeste 0 -- -- 69
2019-08-19 19:00:00 30.1 11 Sur 28 Sudoeste 0 -- -- 65
2019-08-19 18:00:00 30.1 15 Sur 32 Sudoeste 0 -- -- 65
2019-08-19 17:00:00 30.9 19 Sur 30 Sur 0 -- -- 62
2019-08-19 16:00:00 31.4 19 Sur 29 Sur 0 -- -- 62
2019-08-19 15:00:00 32.3 16 Sur 26 Sudoeste 0 -- -- 60
2019-08-19 14:00:00 32.2 15 Sur 28 Sur 0 -- -- 60
2019-08-19 13:00:00 31.9 15 Sur 24 Sudeste 0 -- -- 58
2019-08-19 12:00:00 32.4 8 Sur 19 Este 0 -- -- 48
2019-08-19 11:00:00 31.6 6 Sur 13 Sudoeste 0 -- -- 47
2019-08-19 10:00:00 29.6 7 Sur 12 Sur 0 -- -- 53
2019-08-19 09:00:00 27.5 0 Calma -- -- 0 -- -- 53
2019-08-19 08:00:00 19.8 0 Calma -- -- 0 -- -- 74
2019-08-19 07:00:00 17.3 0 Calma 5 Oeste 0 -- -- 80
2019-08-19 06:00:00 17.7 3 Este 6 Este 0 -- -- 78
2019-08-19 05:00:00 17.9 0 Calma 4 Norte 0 -- -- 80
2019-08-19 04:00:00 18.2 0 Calma 5 Sudoeste 0 -- -- 81
2019-08-19 03:00:00 19.1 0 Calma 4 Nordeste 0 -- -- 81
2019-08-19 02:00:00 19.8 0 Calma 3 Norte 0 -- -- 80
2019-08-19 01:00:00 20.7 2 Oeste 6 Nordeste 0 -- -- 78
2019-08-19 00:00:00 21.4 5 Norte 6 Norte 0 -- -- 77
2019-08-18 23:00:00 22.6 0 Calma 4 Norte 0 -- -- 72
2019-08-18 22:00:00 24.2 0 Calma 7 Sudoeste 0 -- -- 65
2019-08-18 21:00:00 28.1 5 Sudoeste 14 Sur 0 -- -- 53
2019-08-18 20:00:00 30.2 8 Sudoeste 17 Sudoeste 0 -- -- 48
2019-08-18 19:00:00 32.5 12 Sudoeste 23 Sudoeste 0 -- -- 42
2019-08-18 18:00:00 33.4 13 Sur 22 Sur 0 -- -- 38
2019-08-18 17:00:00 34 14 Sur 25 Sudoeste 0 -- -- 34
2019-08-18 16:00:00 34.3 15 Sur 26 Sur 0 -- -- 33
2019-08-18 15:00:00 34.2 16 Sur 25 Sur 0 -- -- 35
2019-08-18 14:00:00 34.4 15 Sur 23 Sudoeste 0 -- -- 39
2019-08-18 13:00:00 35 11 Sur 18 Sur 0 -- -- 38
2019-08-18 12:00:00 34.4 6 Sudeste 14 Sur 0 -- -- 33
2019-08-18 11:00:00 33.1 4 Sur 11 Sudeste 0 -- -- 31
2019-08-18 10:00:00 30.7 4 Sudeste 6 Sudeste 0 -- -- 45
2019-08-18 09:00:00 26.6 0 Calma -- -- 0 -- -- 83
2019-08-18 08:00:00 20.8 0 Calma -- -- 0 -- -- 98
2019-08-18 07:00:00 19.1 0 Calma -- -- 0 -- -- 97
2019-08-18 06:00:00 20 0 Calma 5 Norte 0 -- -- 97
2019-08-18 05:00:00 20.5 3 Norte 7 Norte 0 -- -- 97
2019-08-18 04:00:00 20.4 3 Norte 6 Norte 0 -- -- 96
2019-08-18 03:00:00 20.4 0 Calma 5 Norte 0 -- -- 95
2019-08-18 02:00:00 20.8 0 Calma -- -- 0 -- -- 93
2019-08-18 01:00:00 21.2 0 Calma -- -- 0 -- -- 92
2019-08-18 00:00:00 21.7 0 Calma 3 Oeste 0 -- -- 91
2019-08-17 23:00:00 22.5 0 Calma 4 Norte 0 -- -- 88
2019-08-17 22:00:00 24.1 0 Calma 6 Sur 0 -- -- 84
2019-08-17 21:00:00 26.1 3 Sur 13 Sudoeste 0 -- -- 78
2019-08-17 20:00:00 28.3 8 Sudoeste 15 Sur 0 -- -- 68
2019-08-17 19:00:00 30.1 10 Sur 22 Sur 0 -- -- 55
2019-08-17 18:00:00 31 13 Sur 24 Sur 0 -- -- 46
2019-08-17 17:00:00 31.5 14 Sur 24 Sur 0 -- -- 46
2019-08-17 16:00:00 30.9 15 Sur 30 Sudeste 0 -- -- 52
2019-08-17 15:00:00 31.4 18 Sur 29 Sur 0 -- -- 49
2019-08-17 14:00:00 32.1 16 Sur 23 Sur 0 -- -- 45
2019-08-17 13:00:00 32.7 13 Sur 23 Sudeste 0 -- -- 46
2019-08-17 12:00:00 32.3 9 Sudeste 15 Sudeste 0 -- -- 39
2019-08-17 11:00:00 30 6 Sudeste 10 Este 0 -- -- 50
2019-08-17 10:00:00 28.1 3 Sudeste 8 Sudeste 0 -- -- 65
2019-08-17 09:00:00 26 0 Calma -- -- 0 -- -- 74
2019-08-17 08:00:00 19.6 0 Calma -- -- 0 -- -- 98
2019-08-17 07:00:00 17.5 0 Calma -- -- 0 -- -- 98
2019-08-17 06:00:00 17.9 0 Calma -- -- 0 -- -- 97
2019-08-17 05:00:00 18.5 0 Calma -- -- 0 -- -- 97
2019-08-17 04:00:00 19 0 Calma -- -- 0 -- -- 96
2019-08-17 03:00:00 19.4 0 Calma -- -- 0 -- -- 95
2019-08-17 02:00:00 19.8 0 Calma -- -- 0 -- -- 94
2019-08-17 01:00:00 20.6 0 Calma 2 Nordeste 0 -- -- 93
2019-08-17 00:00:00 20.9 0 Calma 4 Norte 0 -- -- 91
2019-08-16 23:00:00 21.7 0 Calma 4 Norte 0 -- -- 88
2019-08-16 22:00:00 23.9 0 Calma 13 Sur 0 -- -- 80
2019-08-16 21:00:00 25.1 8 Sur 14 Sur 0 -- -- 76
2019-08-16 20:00:00 26.6 8 Sur 23 Sur 0 -- -- 70
2019-08-16 19:00:00 28 14 Sur 28 Sudoeste 0 -- -- 64
2019-08-16 18:00:00 28.6 15 Sur 31 Sur 0 -- -- 61
2019-08-16 17:00:00 29.8 17 Sur 29 Sur 0 -- -- 59
2019-08-16 16:00:00 30.6 16 Sur 24 Sur 0 -- -- 52
2019-08-16 15:00:00 30.8 15 Sur 26 Sur 0 -- -- 54
2019-08-16 14:00:00 30.4 14 Sur 26 Sur 0 -- -- 55
2019-08-16 13:00:00 30.9 13 Sudeste 28 Sudeste 0 -- -- 51
2019-08-16 12:00:00 30 7 Sudeste 16 Sudeste 0 -- -- 51
2019-08-16 11:00:00 28.6 4 Sudeste 24 Este 0 -- -- 58
2019-08-16 10:00:00 26.7 5 Este 14 Este 0 -- -- 68
2019-08-16 09:00:00 24.7 3 Nordeste 9 Este 0 -- -- 78
2019-08-16 08:00:00 20.7 0 Calma 5 Norte 0 -- -- 96
2019-08-16 07:00:00 19 0 Calma -- -- 0 -- -- 96
2019-08-16 06:00:00 19.1 0 Calma -- -- 0 -- -- 95
2019-08-16 05:00:00 18.8 0 Calma 4 Norte 0 -- -- 95
2019-08-16 04:00:00 19.1 0 Calma 4 Norte 0 -- -- 94
2019-08-16 03:00:00 19.1 0 Calma 4 Norte 0 -- -- 93
2019-08-16 02:00:00 19.6 0 Calma 4 Nordeste 0 -- -- 92
2019-08-16 01:00:00 20 0 Calma 3 Norte 0 -- -- 91
2019-08-16 00:00:00 20.7 3 Norte 5 Norte 0 -- -- 89
2019-08-15 23:00:00 21.4 0 Calma 4 Sur 0 -- -- 86
2019-08-15 22:00:00 23 0 Calma 9 Sur 0 -- -- 81
2019-08-15 21:00:00 25.2 5 Sur 11 Sudeste 0 -- -- 73
2019-08-15 20:00:00 26.8 7 Sur 17 Sur 0 -- -- 67
2019-08-15 19:00:00 27.9 10 Sudeste 22 Sudeste 0 -- -- 65
2019-08-15 18:00:00 28.3 14 Sur 27 Sur 0 -- -- 62
2019-08-15 17:00:00 28.8 15 Sur 30 Sudeste 0 -- -- 60
2019-08-15 16:00:00 29.1 21 Sur 33 Sur 0 -- -- 61
2019-08-15 15:00:00 30.7 17 Sur 26 Sudeste 0 -- -- 54
2019-08-15 14:00:00 30.4 16 Sur 24 Sudeste 0 -- -- 52
2019-08-15 13:00:00 30.5 13 Sur 22 Sudeste 0 -- -- 46
2019-08-15 12:00:00 30.2 10 Sur 16 Sudeste 0 -- -- 49
2019-08-15 11:00:00 28.9 8 Sur 16 Sur 0 -- -- 60
2019-08-15 10:00:00 27.4 5 Sur 10 Sur 0 -- -- 67
2019-08-15 09:00:00 26 4 Nordeste 7 Norte 0 -- -- 74
2019-08-15 08:00:00 19.4 0 Calma 4 Sudoeste 0 -- -- 97
2019-08-15 07:00:00 17.3 0 Calma 3 Norte 0 -- -- 97
2019-08-15 06:00:00 17.4 0 Calma 5 Oeste 0 -- -- 96
2019-08-15 05:00:00 17.6 0 Calma 4 Norte 0 -- -- 95
2019-08-15 04:00:00 17.9 0 Calma 4 Norte 0 -- -- 95
2019-08-15 03:00:00 18.4 0 Calma -- -- 0 -- -- 93
2019-08-15 02:00:00 18.7 0 Calma -- -- 0 -- -- 92
2019-08-15 01:00:00 19.5 0 Calma 3 Sudoeste 0 -- -- 89
2019-08-15 00:00:00 20.6 0 Calma 5 Noroeste 0 -- -- 86
2019-08-14 23:00:00 22.3 4 Oeste 11 Oeste 0 -- -- 79
2019-08-14 22:00:00 24.2 5 Sudoeste 17 Sur 0 -- -- 75
2019-08-14 21:00:00 25 8 Sudoeste 20 Sur 0 -- -- 72
2019-08-14 20:00:00 26.8 9 Sudoeste 22 Sudoeste 0 -- -- 64
2019-08-14 19:00:00 28.5 12 Sudoeste 27 Sur 0 -- -- 58
2019-08-14 18:00:00 29.2 14 Sudoeste 28 Sudoeste 0 -- -- 54
2019-08-14 17:00:00 29.9 10 Sudoeste 23 Noroeste 0 -- -- 48
2019-08-14 16:00:00 30.6 10 Oeste 27 Oeste 0 -- -- 47
2019-08-14 15:00:00 31.4 12 Noroeste 28 Noroeste 0 -- -- 40
2019-08-14 14:00:00 30.9 13 Noroeste 27 Sudoeste 0 -- -- 44
2019-08-14 13:00:00 30 11 Noroeste 27 Noroeste 0 -- -- 47
2019-08-14 12:00:00 30 13 Norte 24 Norte 0 -- -- 49
2019-08-14 11:00:00 29.4 5 Noroeste 15 Sudoeste 0 -- -- 50
2019-08-14 10:00:00 27.4 5 Sur 15 Sur 0 -- -- 64
2019-08-14 09:00:00 25.4 2 Sudeste 5 Sur 0 -- -- 70
2019-08-14 08:00:00 18.8 0 Calma 3 Norte 0 -- -- 93
2019-08-14 07:00:00 16.5 0 Calma 3 Norte 0 -- -- 93
2019-08-14 06:00:00 16.5 0 Calma 3 Norte 0 -- -- 93
2019-08-14 05:00:00 16.7 0 Calma 3 Norte 0 -- -- 91
2019-08-14 04:00:00 16.9 0 Calma 3 Norte 0 -- -- 90
2019-08-14 03:00:00 17.4 0 Calma 4 Norte 0 -- -- 88
2019-08-14 02:00:00 18.1 0 Calma 5 Norte 0 -- -- 85
2019-08-14 01:00:00 18.9 0 Calma 5 Nordeste 0 -- -- 83
2019-08-14 00:00:00 19.6 3 Norte 6 Norte 0 -- -- 79
2019-08-13 23:00:00 20.8 3 Sudoeste 5 Sudoeste 0 -- -- 76
2019-08-13 22:00:00 23.3 4 Sudoeste 13 Sur 0 -- -- 68
2019-08-13 21:00:00 24.4 10 Sur 21 Sudeste 0 -- -- 65
2019-08-13 20:00:00 25.6 14 Sudeste 27 Sudeste 0 -- -- 60
2019-08-13 19:00:00 27.4 17 Sur 27 Sur 0 -- -- 52
2019-08-13 18:00:00 29.2 10 Noroeste 23 Noroeste 0 -- -- 45
2019-08-13 17:00:00 30.2 10 Oeste 21 Sur 0 -- -- 42
2019-08-13 16:00:00 30.3 8 Este 18 Este 0 -- -- 44
2019-08-13 15:00:00 29.8 10 Este 23 Nordeste 0 -- -- 45
2019-08-13 14:00:00 29.1 13 Este 26 Este 0 -- -- 47
2019-08-13 13:00:00 26.9 11 Este 30 Este 0 -- -- 53
2019-08-13 12:00:00 26.4 15 Este 30 Este 0 -- -- 53
2019-08-13 11:00:00 26.6 15 Este 33 Este 0 -- -- 51
2019-08-13 10:00:00 26.4 11 Nordeste 24 Este 0 -- -- 49
2019-08-13 09:00:00 21.5 5 Sudoeste 10 Sudoeste 0 -- -- 68
2019-08-13 08:00:00 17.2 2 Norte 5 Norte 0 -- -- 88
2019-08-13 07:00:00 16.2 0 Calma 5 Norte 0 -- -- 89
2019-08-13 06:00:00 16.6 0 Calma -- -- 0 -- -- 87
2019-08-13 05:00:00 17.8 0 Calma 8 Norte 0 -- -- 83
2019-08-13 04:00:00 18.2 0 Calma 8 Este 0 -- -- 83
2019-08-13 03:00:00 18.2 0 Calma 10 Oeste 0 -- -- 84
2019-08-13 02:00:00 19.1 0 Calma 6 Nordeste 0 -- -- 81
2019-08-13 01:00:00 20 0 Calma 4 Sudoeste 0 -- -- 76
2019-08-13 00:00:00 21.9 0 Calma 16 Este 0 -- -- 70
2019-08-12 23:00:00 24.1 8 Este 24 Este 0 -- -- 63
2019-08-12 22:00:00 24.3 12 Este 28 Este 0 -- -- 64
2019-08-12 21:00:00 24.7 10 Este 26 Este 0 -- -- 67
2019-08-12 20:00:00 26.5 10 Este 22 Nordeste 0 -- -- 65
2019-08-12 19:00:00 27.9 9 Sur 21 Sur 0 -- -- 62
2019-08-12 18:00:00 28.1 11 Este 32 Este 0 -- -- 63
2019-08-12 17:00:00 28.1 17 Este 34 Este 0 -- -- 64
2019-08-12 16:00:00 28.7 16 Este 34 Nordeste 0 -- -- 62
2019-08-12 15:00:00 28.6 17 Este 48 Nordeste 0 -- -- 64
2019-08-12 14:00:00 29.9 19 Este 35 Este 0 -- -- 61
2019-08-12 13:00:00 30.6 17 Este 33 Nordeste 0 -- -- 60
2019-08-12 12:00:00 30.5 15 Este 29 Este 0 -- -- 60
2019-08-12 11:00:00 30.1 9 Este 31 Este 0 -- -- 62
2019-08-12 10:00:00 28 12 Este 27 Nordeste 0 -- -- 68
2019-08-12 09:00:00 26 12 Este 28 Este 0 -- -- 77
2019-08-12 08:00:00 25.7 8 Este 23 Nordeste 0 -- -- 83
2019-08-12 07:00:00 24.5 5 Sudeste 9 Este 0 -- -- 91
2019-08-12 06:00:00 23.2 0 Calma 3 Noroeste 0 -- -- 93
2019-08-12 05:00:00 24.1 0 Calma 6 Sudoeste 0 -- -- 90
2019-08-12 04:00:00 25.7 2 Oeste 10 Noroeste 0 -- -- 86
2019-08-12 03:00:00 26.2 10 Nordeste 16 Este 0 -- -- 84
2019-08-12 02:00:00 25.9 3 Nordeste 6 Sudoeste 0 -- -- 86
2019-08-12 01:00:00 24.8 3 Sur 5 Sudoeste 0 -- -- 87
2019-08-12 00:00:00 25.2 0 Calma 5 Sudeste 0 -- -- 88
2019-08-11 23:00:00 25.7 0 Calma -- -- 0 -- -- 87
2019-08-11 22:00:00 26.8 0 Calma 6 Sudeste 0 -- -- 84
2019-08-11 21:00:00 27.8 3 Sudeste 13 Sudeste 0 -- -- 77
2019-08-11 20:00:00 30 6 Sudeste 10 Sudeste 0 -- -- 64
2019-08-11 19:00:00 31.5 6 Sudeste 17 Sudeste 0 -- -- 63
2019-08-11 18:00:00 32.1 9 Sudeste 20 Sudeste 0 -- -- 62
2019-08-11 17:00:00 32.6 11 Sur 21 Sudeste 0 -- -- 61
2019-08-11 16:00:00 32.9 9 Sudeste 20 Sur 0 -- -- 61
2019-08-11 15:00:00 31.7 16 Sur 26 Sur 0 -- -- 63
2019-08-11 14:00:00 31.9 12 Sudeste 23 Sur 0 -- -- 62
2019-08-11 13:00:00 32.1 11 Sur 19 Sudoeste 0 -- -- 63
2019-08-11 12:00:00 31.6 4 Sudoeste 17 Sur 0 -- -- 61
2019-08-11 11:00:00 29.9 5 Sur 10 Sur 0 -- -- 67
2019-08-11 10:00:00 28.9 4 Oeste 10 Sur 0 -- -- 73
2019-08-11 09:00:00 26.8 3 Este 7 Nordeste 0 -- -- 81
2019-08-11 08:00:00 24.2 0 Calma 5 Norte 0 -- -- 94
2019-08-11 07:00:00 23.6 0 Calma 7 Sudeste 0 -- -- 91
2019-08-11 06:00:00 25.2 4 Sur 10 Este 0 -- -- 90
2019-08-11 05:00:00 24.8 4 Sudeste 9 Sudeste 0 -- -- 93
2019-08-11 04:00:00 24.6 0 Calma 6 Sudeste 0 -- -- 94
2019-08-11 03:00:00 23.8 0 Calma 6 Sur 0 -- -- 94
2019-08-11 02:00:00 24.6 4 Sur 7 Sur 0 -- -- 92
2019-08-11 01:00:00 24.6 0 Calma 4 Sudeste 0 -- -- 91
2019-08-11 00:00:00 25.1 0 Calma 2 Oeste 0 -- -- 88
2019-08-10 23:00:00 26.8 0 Calma 10 Sudeste 0 -- -- 82
2019-08-10 22:00:00 28 5 Sudeste 13 Sudeste 0 -- -- 78
2019-08-10 21:00:00 28.9 3 Sur 8 Sur 0 -- -- 74
2019-08-10 20:00:00 30.2 5 Sudeste 12 Sudeste 0 -- -- 71
2019-08-10 19:00:00 30.9 8 Sudeste 22 Sudeste 0 -- -- 69
2019-08-10 18:00:00 32.2 15 Sur 22 Sur 0 -- -- 64
2019-08-10 17:00:00 35.2 9 Sur 18 Sur 0 -- -- 54
2019-08-10 16:00:00 34.3 8 Sur 21 Sur 0 -- -- 55
2019-08-10 15:00:00 32.8 13 Sur 22 Sudeste 0 -- -- 62
2019-08-10 14:00:00 33.8 16 Sur 23 Sudeste 0 -- -- 57
2019-08-10 13:00:00 34.9 14 Sur 24 Sur 0 -- -- 53
2019-08-10 12:00:00 35 7 Este 15 Sudeste 0 -- -- 50
2019-08-10 11:00:00 33.8 5 Sudeste 9 Sudeste 0 -- -- 50
2019-08-10 10:00:00 30.9 4 Sudeste 9 Sudeste 0 -- -- 61
2019-08-10 09:00:00 27.9 3 Nordeste 8 Norte 0 -- -- 78
2019-08-10 08:00:00 22.2 0 Calma 9 Norte 0 -- -- 96
2019-08-10 07:00:00 20.5 3 Norte 6 Nordeste 0 -- -- 97
2019-08-10 06:00:00 22.1 4 Norte 6 Oeste 0 -- -- 97
2019-08-10 05:00:00 23 3 Norte 10 Norte 0 -- -- 97
2019-08-10 04:00:00 23.3 2 Norte 6 Noroeste 0 -- -- 97
2019-08-10 03:00:00 22.5 0 Calma -- -- 0 -- -- 97
2019-08-10 02:00:00 21.2 0 Calma -- -- 0 -- -- 97
2019-08-10 01:00:00 22.1 0 Calma -- -- 0 -- -- 96
2019-08-10 00:00:00 22.9 0 Calma -- -- 0 -- -- 94
2019-08-09 23:00:00 23.6 0 Calma 4 Sudoeste 0 -- -- 92
2019-08-09 22:00:00 25.4 2 Sudoeste 9 Sur 0 -- -- 89
2019-08-09 21:00:00 26.8 6 Sur 9 Sur 0 -- -- 85
2019-08-09 20:00:00 28.8 6 Sur 13 Sur 0 -- -- 77
2019-08-09 19:00:00 30.3 9 Sur 20 Sur 0 -- -- 71
2019-08-09 18:00:00 30.8 10 Sudeste 21 Sudeste 0 -- -- 68
2019-08-09 17:00:00 31.3 13 Sur 26 Sudeste 0 -- -- 64
2019-08-09 16:00:00 31.5 13 Sudeste 22 Sudeste 0 -- -- 64
2019-08-09 15:00:00 32.2 12 Sur 21 Sudeste 0 -- -- 59
2019-08-09 14:00:00 31.6 14 Sur 23 Sur 0 -- -- 61
2019-08-09 13:00:00 30.5 12 Sudeste 23 Sur 0 -- -- 64
2019-08-09 12:00:00 31 10 Sudeste 20 Sur 0 -- -- 63
2019-08-09 11:00:00 29.5 10 Sur 18 Sur 0 -- -- 70
2019-08-09 10:00:00 28.8 7 Sur 10 Sudeste 0 -- -- 68
2019-08-09 09:00:00 27.3 0 Calma -- -- 0 -- -- 81
2019-08-09 08:00:00 21 0 Calma -- -- 0 -- -- 97
2019-08-09 07:00:00 18.9 0 Calma -- -- 0 -- -- 98
2019-08-09 06:00:00 19.4 0 Calma 0 Calma 0 -- -- 97
2019-08-09 05:00:00 20.3 0 Calma 6 Norte 0 -- -- 97
2019-08-09 04:00:00 20.5 4 Norte 5 Norte 0 -- -- 96
2019-08-09 03:00:00 21 2 Oeste 5 Sudoeste 0 -- -- 95
2019-08-09 02:00:00 21.5 0 Calma -- -- 0 -- -- 95
2019-08-09 01:00:00 22.4 0 Calma 5 Norte 0 -- -- 94
2019-08-09 00:00:00 22.9 0 Calma -- -- 0 -- -- 92
2019-08-08 23:00:00 23.7 0 Calma 0 Calma 0 -- -- 89
2019-08-08 22:00:00 25.2 0 Calma 8 Sudeste 0 -- -- 85
2019-08-08 21:00:00 27.1 3 Sudeste 9 Sur 0 -- -- 79
2019-08-08 20:00:00 30 5 Sudeste 14 Sudeste 0 -- -- 67
2019-08-08 19:00:00 30.2 9 Sudeste 21 Sudeste 0 -- -- 68
2019-08-08 18:00:00 31.3 12 Sudeste 26 Sur 0 -- -- 65
2019-08-08 17:00:00 31.8 14 Sudeste 24 Sudeste 0 -- -- 63
2019-08-08 16:00:00 32.6 12 Sur 24 Sudeste 0 -- -- 59
2019-08-08 15:00:00 31.7 17 Sur 28 Sudeste 0 -- -- 63
2019-08-08 14:00:00 32.4 14 Sur 24 Sur 0 -- -- 58
2019-08-08 13:00:00 32 15 Sur 23 Sur 0 -- -- 59
2019-08-08 12:00:00 31.7 9 Sur 17 Sur 0 -- -- 60
2019-08-08 11:00:00 30.7 4 Sudeste 14 Sudeste 0 -- -- 65
2019-08-08 10:00:00 28.9 3 Nordeste 9 Este 0 -- -- 73
2019-08-08 09:00:00 28.3 3 Este 7 Este 0 -- -- 74
2019-08-08 08:00:00 24.3 0 Calma 4 Oeste 0 -- -- 94
2019-08-08 07:00:00 22.4 0 Calma 4 Oeste 0 -- -- 93
2019-08-08 06:00:00 23.7 2 Este 7 Noroeste 0 -- -- 92
2019-08-08 05:00:00 23.9 3 Sudoeste 10 Noroeste 0 -- -- 92
2019-08-08 04:00:00 23.5 0 Calma 4 Sudoeste 0 -- -- 93
2019-08-08 03:00:00 23.2 3 Norte 6 Oeste 0 -- -- 93
2019-08-08 02:00:00 22.9 0 Calma 4 Sur 0 -- -- 92
2019-08-08 01:00:00 24.2 0 Calma 6 Sudeste 0 -- -- 89
2019-08-08 00:00:00 25.1 0 Calma 8 Sudeste 0 -- -- 86
2019-08-07 23:00:00 26.1 2 Este 12 Este 0 -- -- 83
2019-08-07 22:00:00 26 0 Calma 4 Este 0 -- -- 80
2019-08-07 21:00:00 28.1 0 Calma 7 Sudeste 0 -- -- 75
2019-08-07 20:00:00 30.1 4 Este 9 Este 0 -- -- 69
2019-08-07 19:00:00 31 6 Sudeste 18 Sudeste 0 -- -- 65
2019-08-07 18:00:00 32.8 7 Sudeste 19 Sudeste 0 -- -- 59
2019-08-07 17:00:00 34.3 10 Sudeste 21 Sudeste 0 -- -- 56
2019-08-07 16:00:00 33.1 8 Sudeste 20 Sudeste 0 -- -- 58
2019-08-07 15:00:00 32.5 9 Sudeste 28 Sur 0 -- -- 61
2019-08-07 14:00:00 30.4 13 Sudeste 22 Sudeste 0 -- -- 67
2019-08-07 13:00:00 30.6 13 Sur 21 Sudeste 0 -- -- 67
2019-08-07 12:00:00 30.1 12 Sur 21 Sudeste 0 -- -- 70
2019-08-07 11:00:00 29.3 12 Sur 19 Sur 0 -- -- 71
2019-08-07 10:00:00 28.1 8 Sur 12 Sur 0 -- -- 74
2019-08-07 09:00:00 26.5 2 Este 10 Norte 0 -- -- 82
2019-08-07 08:00:00 22.6 0 Calma 5 Oeste 0 -- -- 97
2019-08-07 07:00:00 21 0 Calma 5 Norte 0 -- -- 97
2019-08-07 06:00:00 21.3 4 Norte 7 Noroeste 0 -- -- 97
2019-08-07 05:00:00 21.6 0 Calma 10 Oeste 0 -- -- 95
2019-08-07 04:00:00 21.8 0 Calma -- -- 0 -- -- 95
2019-08-07 03:00:00 22.7 0 Calma 4 Noroeste 0 -- -- 94
2019-08-07 02:00:00 23.7 0 Calma -- -- 0 -- -- 93
2019-08-07 01:00:00 22.8 0 Calma -- -- 0 -- -- 93
2019-08-07 00:00:00 23.1 0 Calma -- -- 0 -- -- 93
2019-08-06 23:00:00 24.1 0 Calma -- -- 0 -- -- 89
2019-08-06 22:00:00 25.5 0 Calma 8 Sudeste 0 -- -- 86
2019-08-06 21:00:00 27 3 Sudeste 13 Nordeste 0 -- -- 80
2019-08-06 20:00:00 29.7 6 Este 14 Este 0 -- -- 71
2019-08-06 19:00:00 30.8 8 Este 20 Sudeste 0 -- -- 67
2019-08-06 18:00:00 32.4 11 Sudeste 22 Este 0 -- -- 59
2019-08-06 17:00:00 34.4 10 Sudoeste 24 Sudeste 0 -- -- 51
2019-08-06 16:00:00 34.3 13 Sudeste 27 Sudeste 0 -- -- 53
2019-08-06 15:00:00 33.7 13 Sudeste 26 Sudeste 0 -- -- 54
2019-08-06 14:00:00 31.9 14 Sur 24 Sur 0 -- -- 59
2019-08-06 13:00:00 31.7 13 Sur 21 Sur 0 -- -- 57
2019-08-06 12:00:00 31.7 10 Sur 18 Sur 0 -- -- 49
2019-08-06 11:00:00 30.3 4 Sudeste 13 Sudeste 0 -- -- 60
2019-08-06 10:00:00 28.6 4 Este 12 Sudeste 0 -- -- 70
2019-08-06 09:00:00 26.6 2 Norte 5 Norte 0 -- -- 73
2019-08-06 08:00:00 22.8 2 Oeste 6 Sudoeste 0 -- -- 81
2019-08-06 07:00:00 19.6 2 Noroeste 6 Norte 0 -- -- 89
2019-08-06 06:00:00 19.7 2 Norte 5 Norte 0 -- -- 90
2019-08-06 05:00:00 20.6 0 Calma 15 Norte 0 -- -- 88
2019-08-06 04:00:00 20.7 0 Calma 5 Norte 0 -- -- 91
2019-08-06 03:00:00 20.6 0 Calma -- -- 0 -- -- 90
2019-08-06 02:00:00 20.5 0 Calma 0 Calma 0 -- -- 89
2019-08-06 01:00:00 21.1 0 Calma -- -- 0 -- -- 89
2019-08-06 00:00:00 21.8 0 Calma 2 Nordeste 0 -- -- 86
2019-08-05 23:00:00 22.9 2 Norte 5 Sudoeste 0 -- -- 82
2019-08-05 22:00:00 24.8 3 Sudoeste 5 Sudoeste 0 -- -- 70
2019-08-05 21:00:00 27.4 3 Sudeste 8 Sudeste 0 -- -- 62
2019-08-05 20:00:00 29.9 5 Sur 16 Sur 0 -- -- 56
2019-08-05 19:00:00 30.2 9 Sur 24 Sudeste 0 -- -- 59
2019-08-05 18:00:00 31.5 10 Sur 25 Sudeste 0 -- -- 54
2019-08-05 17:00:00 32.2 15 Sur 27 Sur 0 -- -- 49
2019-08-05 16:00:00 33.1 14 Sur 29 Sur 0 -- -- 48
2019-08-05 15:00:00 33.5 15 Sur 25 Sur 0 -- -- 45
2019-08-05 14:00:00 34.3 14 Sur 22 Sur -- -- -- 36
2019-08-05 13:00:00 33.8 9 Sur 19 Sur 0 -- -- 42
2019-08-05 12:00:00 33.5 8 Sudeste 18 Sur 0 -- -- 41
2019-08-05 11:00:00 31.6 9 Sudeste 14 Este 0 -- -- 41
2019-08-05 10:00:00 29.6 6 Este 13 Sudeste 0 -- -- 49
2019-08-05 09:00:00 27.7 3 Nordeste 6 Norte 0 -- -- 60
2019-08-05 08:00:00 21.1 0 Calma 6 Norte 0 -- -- 76
2019-08-05 07:00:00 17.9 0 Calma 3 Sudoeste 0 -- -- 83
2019-08-05 06:00:00 18.5 0 Calma 6 Norte 0 -- -- 82
2019-08-05 05:00:00 18.7 4 Norte 7 Norte 0 -- -- 84
2019-08-05 04:00:00 19.2 0 Calma 5 Norte 0 -- -- 86
2019-08-05 03:00:00 19.6 0 Calma 4 Nordeste 0 -- -- 81
2019-08-05 02:00:00 20.4 4 Norte 6 Norte 0 -- -- 78
2019-08-05 01:00:00 20.9 2 Sudoeste 5 Norte 0 -- -- 74
2019-08-05 00:00:00 21.4 0 Calma 4 Norte 0 -- -- 69
2019-08-04 23:00:00 22.6 0 Calma 4 Norte 0 -- -- 64
2019-08-04 22:00:00 23.8 0 Calma 4 Norte 0 -- -- 59
2019-08-04 21:00:00 27.4 2 Sur 12 Sur 0 -- -- 51
2019-08-04 20:00:00 30 8 Sudoeste 15 Sur 0 -- -- 46
2019-08-04 19:00:00 32.2 10 Sudoeste 20 Sur 0 -- -- 35
2019-08-04 18:00:00 32.8 11 Sur 22 Sur 0 -- -- 34
2019-08-04 17:00:00 33 12 Sur 25 Sur 0 -- -- 34
2019-08-04 16:00:00 33.1 17 Sur 28 Sur 0 -- -- 33
2019-08-04 15:00:00 32.9 16 Sur 29 Sur 0 -- -- 33
2019-08-04 14:00:00 33 18 Sur 27 Sur 0 -- -- 32
2019-08-04 13:00:00 32.8 14 Sur 25 Sur 0 -- -- 33
2019-08-04 12:00:00 33.9 10 Sur 18 Sur 0 -- -- 30
2019-08-04 11:00:00 32.4 6 Sudeste 14 Sudeste 0 -- -- 35
2019-08-04 10:00:00 31.3 5 Este 9 Este 0 -- -- 38
2019-08-04 09:00:00 28.3 0 Calma -- -- 0 -- -- 51
2019-08-04 08:00:00 21.6 0 Calma 3 Nordeste 0 -- -- 67
2019-08-04 07:00:00 17.6 0 Calma 4 Sur 0 -- -- 74
2019-08-04 06:00:00 16.9 0 Calma 2 Nordeste 0 -- -- 79
2019-08-04 05:00:00 17.6 0 Calma 3 Oeste 0 -- -- 78
2019-08-04 04:00:00 18.3 0 Calma 5 Norte 0 -- -- 79
2019-08-04 03:00:00 18.9 0 Calma 3 Norte 0 -- -- 80
2019-08-04 02:00:00 19.9 0 Calma 5 Norte 0 -- -- 75
2019-08-04 01:00:00 20.4 0 Calma 4 Norte 0 -- -- 73
2019-08-04 00:00:00 21.1 0 Calma 4 Norte 0 -- -- 66
2019-08-03 23:00:00 22 0 Calma 3 Noroeste 0 -- -- 63
2019-08-03 22:00:00 22.9 2 Norte 5 Norte 0 -- -- 60
2019-08-03 21:00:00 26.5 0 Calma 18 Sudeste 0 -- -- 48
2019-08-03 20:00:00 28.8 12 Sur 26 Sur 0 -- -- 43
2019-08-03 19:00:00 30.2 17 Sur 25 Sur 0 -- -- 41
2019-08-03 18:00:00 31.4 14 Sur 23 Sur 0 -- -- 42
2019-08-03 17:00:00 31.8 14 Sur 26 Sur 0 -- -- 44
2019-08-03 16:00:00 32.5 16 Sur 23 Sudoeste 0 -- -- 45
2019-08-03 15:00:00 33.5 13 Sur 24 Sur 0 -- -- 40
2019-08-03 14:00:00 32.6 15 Sur 26 Sudeste 0 -- -- 43
2019-08-03 13:00:00 34.8 5 Sur 19 Sudeste 0 -- -- 33
2019-08-03 12:00:00 33 6 Sudeste 19 Este 0 -- -- 36
2019-08-03 11:00:00 31.6 9 Sudeste 18 Este 0 -- -- 37
2019-08-03 10:00:00 30.3 7 Este 13 Este 0 -- -- 41
2019-08-03 09:00:00 28.8 2 Sudeste 6 Sur 0 -- -- 45
2019-08-03 08:00:00 21.9 2 Sur 8 Noroeste 0 -- -- 65
2019-08-03 07:00:00 17.4 0 Calma -- -- 0 -- -- 71
2019-08-03 06:00:00 16.9 0 Calma 0 Calma 0 -- -- 75
2019-08-03 05:00:00 16.8 0 Calma -- -- 0 -- -- 78
2019-08-03 04:00:00 17.8 0 Calma 0 Calma 0 -- -- 76
2019-08-03 03:00:00 17.9 0 Calma -- -- 0 -- -- 76
2019-08-03 02:00:00 18.9 0 Calma -- -- 0 -- -- 72
2019-08-03 01:00:00 19.8 0 Calma 4 Oeste 0 -- -- 68
2019-08-03 00:00:00 21.3 2 Sur 8 Sudoeste 0 -- -- 62
2019-08-02 23:00:00 23.6 4 Sudoeste 10 Este 0 -- -- 54
2019-08-02 22:00:00 25 0 Calma 10 Nordeste 0 -- -- 50
2019-08-02 21:00:00 27.4 6 Este 19 Este 0 -- -- 43
2019-08-02 20:00:00 29.8 9 Este 22 Este 0 -- -- 45
2019-08-02 19:00:00 32 9 Este 21 Este 0 -- -- 44
2019-08-02 18:00:00 32.3 8 Sudeste 19 Sudeste 0 -- -- 44
2019-08-02 17:00:00 31.7 11 Sudeste 24 Sur 0 -- -- 46
2019-08-02 16:00:00 32.5 11 Sudeste 28 Sudeste 0 -- -- 45
2019-08-02 15:00:00 33.2 9 Este 28 Este 0 -- -- 42
2019-08-02 14:00:00 32.9 9 Este 26 Este 0 -- -- 40
2019-08-02 13:00:00 32.7 12 Sudeste 23 Este 0 -- -- 39
2019-08-02 12:00:00 31.6 12 Este 26 Este 0 -- -- 43
2019-08-02 11:00:00 31.1 10 Este 17 Nordeste 0 -- -- 42
2019-08-02 10:00:00 29.3 5 Este 13 Sudeste 0 -- -- 56
2019-08-02 09:00:00 27.1 2 Sudeste 10 Sudeste 0 -- -- 73
2019-08-02 08:00:00 23.5 0 Calma 5 Oeste 0 -- -- 93
2019-08-02 07:00:00 21.1 0 Calma 5 Este 0 -- -- 95
2019-08-02 06:00:00 21.7 3 Norte 11 Nordeste 0 -- -- 94
2019-08-02 05:00:00 22 3 Noroeste 6 Norte 0 -- -- 93
2019-08-02 04:00:00 22.7 3 Sudoeste 10 Sur 0 -- -- 89
2019-08-02 03:00:00 22.3 4 Norte 5 Norte 0 -- -- 91
2019-08-02 02:00:00 23 3 Norte 6 Norte 0 -- -- 90
2019-08-02 01:00:00 23.3 2 Sudoeste 4 Sudoeste 0 -- -- 86
2019-08-02 00:00:00 23.2 0 Calma 5 Nordeste 0 -- -- 83
2019-08-01 23:00:00 24.7 3 Nordeste 10 Noroeste 0 -- -- 79
2019-08-01 22:00:00 25.5 4 Oeste 13 Sudeste 0 -- -- 75
2019-08-01 21:00:00 27.2 5 Este 22 Sudeste 0 -- -- 70
2019-08-01 20:00:00 28.5 6 Este 31 Nordeste 0 -- -- 66
2019-08-01 19:00:00 29.3 2 Norte 15 Norte 0 -- -- 48
2019-08-01 18:00:00 29.4 12 Oeste 25 Oeste 0 -- -- 49
2019-08-01 17:00:00 29.2 5 Oeste 19 Sur 0 -- -- 61
2019-08-01 16:00:00 33.2 8 Sur 26 Sudeste 0 -- -- 48
2019-08-01 15:00:00 34.9 16 Sur 26 Sudeste 0 -- -- 42
2019-08-01 14:00:00 35.5 5 Nordeste 21 Oeste 0 -- -- 37
2019-08-01 13:00:00 34.1 4 Norte 18 Nordeste 0 -- -- 43
2019-08-01 12:00:00 31.9 5 Sudoeste 18 Sudeste 0 -- -- 48
2019-08-01 11:00:00 30.6 11 Sudeste 30 Este 0 -- -- 51
2019-08-01 10:00:00 28.9 13 Este 30 Este 0 -- -- 51
2019-08-01 09:00:00 28.7 8 Sudeste 22 Sudeste 0 -- -- 45
2019-08-01 08:00:00 25.8 3 Sudoeste 15 Sur 0 -- -- 49
2019-08-01 07:00:00 23.5 6 Sudoeste 16 Oeste 0 -- -- 57
2019-08-01 06:00:00 23.5 8 Sudoeste 16 Sudoeste 0 -- -- 57
2019-08-01 05:00:00 22.6 2 Sudeste 14 Sudoeste 0 -- -- 60
2019-08-01 04:00:00 20.3 5 Noroeste 12 Oeste 0 -- -- 70
2019-08-01 03:00:00 22 4 Norte 15 Sudoeste 0 -- -- 65
2019-08-01 02:00:00 22.4 4 Sudoeste 15 Sudoeste 0 -- -- 66
2019-08-01 01:00:00 22.2 0 Calma 10 Sudoeste 0 -- -- 68
2019-08-01 00:00:00 23.5 6 Sudoeste 21 Oeste 0 -- -- 64
2019-07-31 23:00:00 24.3 13 Este 27 Este 0 -- -- 61
2019-07-31 22:00:00 24.5 9 Este 23 Este 0 -- -- 62
2019-07-31 21:00:00 25.1 3 Este 25 Este 0 -- -- 59
2019-07-31 20:00:00 27.2 12 Este 29 Este 0 -- -- 52
2019-07-31 19:00:00 28.7 12 Este 30 Este 0 -- -- 47
2019-07-31 18:00:00 29 13 Este 32 Nordeste 0 -- -- 46
2019-07-31 17:00:00 29.2 17 Este 39 Este 0 -- -- 46
2019-07-31 16:00:00 29 13 Este 31 Este 0 -- -- 48
2019-07-31 15:00:00 29.7 18 Este 36 Este 0 -- -- 46
2019-07-31 14:00:00 29.1 21 Este 39 Nordeste 0 -- -- 46
2019-07-31 13:00:00 26.5 20 Este 40 Este 0 -- -- 49
2019-07-31 12:00:00 27.4 19 Este 46 Este 0 -- -- 50
2019-07-31 11:00:00 27.6 22 Este 42 Este 0 -- -- 53
2019-07-31 10:00:00 26.7 21 Este 42 Este 0 -- -- 55
2019-07-31 09:00:00 25.8 9 Este 22 Este 0 -- -- 62
2019-07-31 08:00:00 23.2 3 Sudoeste 12 Oeste 0 -- -- 76
2019-07-31 07:00:00 19.1 0 Calma 6 Noroeste 0 -- -- 91
2019-07-31 06:00:00 19.7 0 Calma 8 Nordeste 0 -- -- 88
2019-07-31 05:00:00 21.2 0 Calma 13 Este 0 -- -- 84
2019-07-31 04:00:00 22.9 7 Nordeste 14 Este 0 -- -- 78
2019-07-31 03:00:00 23.6 10 Nordeste 21 Nordeste 0 -- -- 76
2019-07-31 02:00:00 23.4 2 Nordeste 13 Este 0 -- -- 81
2019-07-31 01:00:00 24.2 6 Nordeste 15 Nordeste 0 -- -- 80
2019-07-31 00:00:00 24.8 6 Este 16 Este 0 -- -- 78
2019-07-30 23:00:00 25.4 8 Este 20 Este 0 -- -- 76
2019-07-30 22:00:00 25.8 5 Este 14 Sudeste 0 -- -- 74
2019-07-30 21:00:00 26.2 7 Sudeste 22 Sudeste 0 -- -- 69
2019-07-30 20:00:00 28.2 10 Sur 22 Sur 0 -- -- 61
2019-07-30 19:00:00 29.5 13 Sur 21 Sur 0 -- -- 54
2019-07-30 18:00:00 30.8 13 Sur 24 Sur 0 -- -- 43
2019-07-30 17:00:00 31.6 14 Sur 27 Sudeste 0 -- -- 34
2019-07-30 16:00:00 31.3 15 Sur 25 Sudeste 0 -- -- 45
2019-07-30 15:00:00 31.9 14 Sur 27 Sudeste 0 -- -- 48
2019-07-30 14:00:00 31.2 18 Sur 26 Sur 0 -- -- 52
2019-07-30 13:00:00 33.4 10 Sur 21 Sudoeste 0 -- -- 33
2019-07-30 12:00:00 32.8 9 Sudeste 17 Sudeste 0 -- -- 29
2019-07-30 11:00:00 32 5 Este 10 Este 0 -- -- 35
2019-07-30 10:00:00 29.3 3 Este 8 Este 0 -- -- 47
2019-07-30 09:00:00 26.6 3 Nordeste 6 Norte 0 -- -- 70
2019-07-30 08:00:00 20.9 0 Calma -- -- 0 -- -- 90
2019-07-30 07:00:00 17.1 0 Calma 2 Nordeste 0 -- -- 95
2019-07-30 06:00:00 17.1 0 Calma 2 Norte 0 -- -- 94
2019-07-30 05:00:00 17.6 0 Calma 4 Nordeste 0 -- -- 93
2019-07-30 04:00:00 17.9 0 Calma 4 Nordeste 0 -- -- 92
2019-07-30 03:00:00 18.3 0 Calma 6 Norte 0 -- -- 92
2019-07-30 02:00:00 18.8 2 Norte 6 Norte 0 -- -- 92
2019-07-30 01:00:00 19.8 0 Calma 3 Sudoeste 0 -- -- 91
2019-07-30 00:00:00 20.5 2 Oeste 4 Oeste 0 -- -- 88
2019-07-29 23:00:00 21.3 3 Norte 5 Norte 0 -- -- 84
2019-07-29 22:00:00 23.1 2 Norte 9 Sudeste 0 -- -- 78
2019-07-29 21:00:00 25.5 5 Sur 18 Sudeste 0 -- -- 71
2019-07-29 20:00:00 27.8 11 Sur 22 Sudeste 0 -- -- 61
2019-07-29 19:00:00 28.9 14 Sur 27 Sur 0 -- -- 58
2019-07-29 18:00:00 29.4 16 Sur 29 Sur 0 -- -- 56
2019-07-29 17:00:00 29.7 20 Sur 35 Sur 0 -- -- 53
2019-07-29 16:00:00 29.7 23 Sur 36 Sur 0 -- -- 53
2019-07-29 15:00:00 30.4 19 Sur 32 Sur 0 -- -- 51
2019-07-29 14:00:00 30.7 19 Sur 31 Sur 0 -- -- 49
2019-07-29 13:00:00 30.1 17 Sur 32 Sur 0 -- -- 52
2019-07-29 12:00:00 29.1 16 Sur 28 Sur 0 -- -- 58
2019-07-29 11:00:00 28 15 Sudeste 26 Sudeste 0 -- -- 63
2019-07-29 10:00:00 27.5 4 Sudeste 13 Sudeste 0 -- -- 61
2019-07-29 09:00:00 26.2 4 Este 6 Este 0 -- -- 53
2019-07-29 08:00:00 20.4 0 Calma 5 Norte 0 -- -- 73
2019-07-29 07:00:00 14.7 0 Calma 5 Norte 0 -- -- 88
2019-07-29 06:00:00 15 2 Norte 6 Norte 0 -- -- 85
2019-07-29 05:00:00 14.7 4 Norte 6 Norte 0 -- -- 84
2019-07-29 04:00:00 15.7 0 Calma 3 Norte 0 -- -- 79
2019-07-29 03:00:00 15.7 0 Calma 3 Norte 0 -- -- 79
2019-07-29 02:00:00 16.4 2 Norte 6 Norte 0 -- -- 76
2019-07-29 01:00:00 17.2 2 Norte 4 Norte 0 -- -- 73
2019-07-29 00:00:00 18.3 0 Calma 3 Norte 0 -- -- 71
2019-07-28 23:00:00 20 3 Norte 7 Nordeste 0 -- -- 66
2019-07-28 22:00:00 22.3 3 Norte 12 Noroeste 0 -- -- 57
2019-07-28 21:00:00 24.6 5 Norte 15 Oeste 0 -- -- 52
2019-07-28 20:00:00 27.9 8 Noroeste 18 Noroeste 0 -- -- 44
2019-07-28 19:00:00 29.8 8 Noroeste 25 Noroeste 0 -- -- 34
2019-07-28 18:00:00 29.1 14 Oeste 30 Noroeste 0 -- -- 34
2019-07-28 17:00:00 29.8 12 Noroeste 33 Noroeste 0 -- -- 38
2019-07-28 16:00:00 29.1 16 Noroeste 33 Noroeste 0 -- -- 43
2019-07-28 15:00:00 28.4 19 Noroeste 33 Noroeste 0 -- -- 45
2019-07-28 14:00:00 27.7 19 Noroeste 32 Oeste 0 -- -- 52
2019-07-28 13:00:00 28 17 Noroeste 30 Oeste 0 -- -- 51
2019-07-28 12:00:00 27.9 13 Noroeste 28 Oeste 0 -- -- 51
2019-07-28 11:00:00 26.8 14 Oeste 24 Noroeste 0 -- -- 55
2019-07-28 10:00:00 26.1 12 Noroeste 22 Norte 0 -- -- 57
2019-07-28 09:00:00 24.7 9 Noroeste 25 Noroeste 0 -- -- 61
2019-07-28 08:00:00 24.8 5 Norte 16 Norte 0 -- -- 62
2019-07-28 07:00:00 22 7 Nordeste 18 Norte 0 -- -- 68
2019-07-28 06:00:00 22.5 8 Noroeste 27 Noroeste 0 -- -- 64
2019-07-28 05:00:00 23.2 12 Noroeste 25 Noroeste 0 -- -- 63
2019-07-28 04:00:00 23.9 9 Noroeste 27 Noroeste 0 -- -- 57
2019-07-28 03:00:00 24.8 7 Noroeste 30 Oeste 0 -- -- 57
2019-07-28 02:00:00 25.4 11 Noroeste 32 Noroeste 0 -- -- 52
2019-07-28 01:00:00 25.6 10 Noroeste 25 Noroeste 0 -- -- 68
2019-07-28 00:00:00 26.2 8 Noroeste 22 Noroeste 0 -- -- 55
2019-07-27 23:00:00 23.4 5 Norte 10 Noroeste 0 -- -- 71
2019-07-26 12:00:00 33 10 Sur 22 Sudeste 0 -- -- 40
2019-07-26 11:00:00 32.5 10 Sudeste 18 Sudeste 0 -- -- 36
2019-07-26 10:00:00 31.5 7 Sudeste 13 Sudeste 0 -- -- 36
2019-07-26 09:00:00 30 0 Calma 4 Norte 0 -- -- 40
2019-07-26 08:00:00 22.5 0 Calma 4 Norte 0 -- -- 62
2019-07-26 07:00:00 17.5 0 Calma -- -- 0 -- -- 75
2019-07-26 06:00:00 17.8 0 Calma -- -- 0 -- -- 74
2019-07-26 05:00:00 18.2 0 Calma 3 Nordeste 0 -- -- 74
2019-07-26 04:00:00 18.8 2 Nordeste 4 Norte 0 -- -- 74
2019-07-26 03:00:00 19.7 0 Calma 5 Norte 0 -- -- 73
2019-07-26 02:00:00 20.2 2 Norte 5 Norte 0 -- -- 73
2019-07-26 01:00:00 21.3 0 Calma 4 Norte 0 -- -- 70
2019-07-26 00:00:00 22.2 0 Calma 4 Norte 0 -- -- 66